KGSB

Seymour Johnson AFB Airport

Goldsboro, North Carolina, USA
METAR KGSB 230156Z AUTO 20005KT 10SM CLR 24/19 A3006 RMK AO2 SLP181 T02420190 $
Observed Flight Rules
May-23 @ 01:56 UTC (an hour ago) Visual Flight Rules
Wind Visibility Clouds
200° at 5 knots 10 miles
  • Clear skies
Temperatures Readings
Current 24°C / 75°F
Dewpoint 19°C / 66°F
Humidity 74%
Altimeter 30.06" Hg
Pressure 1018.1 hPa
Elevation 33
METAR KGSB 230156Z AUTO 20005KT 10SM CLR 24/19 A3006 RMK AO2 SLP181 T02420190 $
Observed Flight Rules
May-23 @ 01:56 UTC
(an hour ago)
VFR
Wind Visibility
200° at 5 knots 10 miles
Clouds
  • Clear skies
Temperature Dewpoint
24°C / 75°F 19°C / 66°F
Humidity Altimeter Pressure
74% 30.06" Hg 1018.1 hPa